Time;durP1;ratioP1;P1;durP2;ratioP2;P2;SDS_P1;SDS_P2;PMS_P1;PMS_P2;Temp;Humidity;BMP_temperature;BMP_pressure;BME280_temperature;BME280_humidity;BME280_pressure;Samples;Min_cycle;Max_cycle;Signal;HPM_P1;HPM_P2
2023/06/16 00:01:35;;;;;;;8.73;4.60;;;;;;;17.91;100.00;101672.94;5259916;28;20101;-67
2023/06/16 00:04:08;;;;;;;10.07;4.68;;;;;;;17.86;100.00;101668.97;5269454;28;20024;-67
2023/06/16 00:06:42;;;;;;;7.10;4.38;;;;;;;17.69;100.00;101674.06;5267156;28;20115;-67
2023/06/16 00:09:13;;;;;;;;;;;;;;;17.88;100.00;101672.34;5267742;28;20051;-67
2023/06/16 00:11:45;;;;;;;7.85;4.20;;;;;;;17.64;100.00;101669.09;5269316;28;19916;-67
2023/06/16 00:14:16;;;;;;;8.82;4.78;;;;;;;17.62;100.00;101657.59;5270511;28;20028;-67
2023/06/16 00:16:47;;;;;;;7.13;4.78;;;;;;;17.54;100.00;101662.84;5275517;28;20829;-66
2023/06/16 00:19:21;;;;;;;7.80;4.75;;;;;;;17.63;100.00;101664.69;5272097;28;20056;-67
2023/06/16 00:21:53;;;;;;;8.77;4.40;;;;;;;17.52;100.00;101654.03;5272200;28;20037;-67
2023/06/16 00:24:24;;;;;;;7.43;4.70;;;;;;;17.51;100.00;101654.16;5267333;28;20039;-67
2023/06/16 00:26:55;;;;;;;8.00;4.70;;;;;;;17.53;100.00;101660.31;5272228;28;20036;-67
2023/06/16 00:29:27;;;;;;;7.40;4.60;;;;;;;17.49;100.00;101661.56;5269809;28;20033;-67
2023/06/16 00:31:58;;;;;;;8.27;4.88;;;;;;;17.33;100.00;101665.69;5270341;28;20078;-66
2023/06/16 00:34:29;;;;;;;12.13;5.07;;;;;;;17.34;100.00;101670.09;5267555;28;20426;-66
2023/06/16 00:37:01;;;;;;;9.18;5.18;;;;;;;17.32;100.00;101672.09;5270326;28;20055;-67
2023/06/16 00:39:32;;;;;;;9.60;4.72;;;;;;;17.38;100.00;101666.13;5267823;28;20060;-67
2023/06/16 00:42:04;;;;;;;7.13;4.95;;;;;;;17.40;100.00;101669.53;5269285;28;20414;-67
2023/06/16 00:44:36;;;;;;;7.40;5.22;;;;;;;17.23;100.00;101664.84;5265850;28;20374;-67
2023/06/16 00:47:07;;;;;;;9.10;5.03;;;;;;;17.32;100.00;101666.69;5271936;28;20037;-67
2023/06/16 00:49:39;;;;;;;10.32;5.43;;;;;;;17.35;100.00;101666.38;5272647;28;20056;-67
2023/06/16 00:52:14;;;;;;;8.77;5.18;;;;;;;17.09;100.00;101665.25;5268706;28;20164;-66
2023/06/16 00:54:45;;;;;;;8.13;5.55;;;;;;;17.10;100.00;101664.25;5275614;28;20067;-66
2023/06/16 00:57:17;;;;;;;6.90;4.65;;;;;;;17.05;100.00;101661.97;5268907;28;20447;-67
2023/06/16 00:59:48;;;;;;;7.63;5.30;;;;;;;16.90;100.00;101656.13;5273062;28;20059;-66
2023/06/16 01:02:20;;;;;;;7.40;5.10;;;;;;;16.85;100.00;101658.38;5273496;28;20036;-66
2023/06/16 01:04:54;;;;;;;7.95;5.07;;;;;;;16.85;100.00;101655.69;5269122;28;20032;-66
2023/06/16 01:07:38;;;;;;;8.43;4.90;;;;;;;16.83;100.00;101654.97;5274327;28;20056;-67
2023/06/16 01:10:18;;;;;;;9.13;5.55;;;;;;;16.79;100.00;101645.44;5276626;28;20044;-67
2023/06/16 01:13:00;;;;;;;8.05;4.85;;;;;;;16.70;100.00;101646.25;5270937;28;20028;-67
2023/06/16 01:15:35;;;;;;;10.60;6.05;;;;;;;16.73;100.00;101646.00;5271948;28;20119;-66
2023/06/16 01:18:08;;;;;;;9.07;5.53;;;;;;;16.54;100.00;101646.78;5270579;28;20107;-66
2023/06/16 01:20:51;;;;;;;10.57;5.32;;;;;;;16.64;100.00;101640.44;5274981;28;20528;-66
2023/06/16 01:23:53;;;;;;;10.40;5.82;;;;;;;16.56;100.00;101644.81;5273464;28;20031;-66
2023/06/16 01:26:28;;;;;;;10.48;5.43;;;;;;;16.42;100.00;101638.81;5269211;28;20474;-66
2023/06/16 01:29:02;;;;;;;9.45;5.82;;;;;;;16.33;100.00;101638.75;5270814;28;20430;-66
2023/06/16 01:31:34;;;;;;;;;;;;;;;16.55;100.00;101643.09;5267012;28;20095;-66
2023/06/16 01:34:07;;;;;;;9.82;5.95;;;;;;;16.24;100.00;101641.28;5274343;28;19923;-66
2023/06/16 01:36:41;;;;;;;9.83;6.57;;;;;;;16.19;100.00;101648.06;5276210;28;20378;-66
2023/06/16 01:39:14;;;;;;;8.20;5.70;;;;;;;16.14;100.00;101643.06;5277265;28;20029;-66
2023/06/16 01:41:48;;;;;;;8.63;6.07;;;;;;;16.10;100.00;101636.25;5274292;28;20466;-67
2023/06/16 01:44:20;;;;;;;7.67;6.03;;;;;;;16.04;100.00;101640.31;5272006;28;20060;-67
2023/06/16 01:46:52;;;;;;;9.93;6.30;;;;;;;16.03;100.00;101638.63;5272175;28;20094;-66
2023/06/16 01:49:23;;;;;;;10.57;5.93;;;;;;;15.93;100.00;101642.25;5275905;28;20498;-67
2023/06/16 01:51:55;;;;;;;8.75;5.93;;;;;;;15.91;100.00;101630.78;5273527;28;20058;-66
2023/06/16 01:54:27;;;;;;;11.15;6.28;;;;;;;15.86;100.00;101640.09;5279952;28;20094;-66
2023/06/16 01:56:58;;;;;;;8.63;6.03;;;;;;;15.94;100.00;101636.75;5270743;28;20429;-66
2023/06/16 01:59:29;;;;;;;8.18;6.22;;;;;;;15.80;100.00;101643.31;5270839;28;20383;-66
2023/06/16 02:02:06;;;;;;;10.20;6.63;;;;;;;15.79;100.00;101643.44;5266517;28;20030;-67
2023/06/16 02:04:40;;;;;;;9.02;6.72;;;;;;;15.73;100.00;101646.63;5271965;28;20024;-67
2023/06/16 02:07:18;;;;;;;10.30;6.55;;;;;;;15.71;100.00;101646.75;5270991;28;20052;-67
2023/06/16 02:09:50;;;;;;;10.00;6.32;;;;;;;15.70;100.00;101647.72;5269724;28;20021;-66
2023/06/16 02:12:22;;;;;;;11.05;6.78;;;;;;;15.61;100.00;101638.63;5270697;28;20367;-67
2023/06/16 02:14:54;;;;;;;12.68;6.80;;;;;;;15.74;100.00;101645.66;5280307;28;20498;-66
2023/06/16 02:17:29;;;;;;;9.27;6.72;;;;;;;15.62;100.00;101644.84;5277932;28;20139;-67
2023/06/16 02:20:01;;;;;;;9.05;6.35;;;;;;;15.53;100.00;101649.16;5281997;28;20025;-66
2023/06/16 02:22:32;;;;;;;10.07;7.03;;;;;;;15.54;100.00;101644.66;5265362;28;20162;-67
2023/06/16 02:25:04;;;;;;;10.68;6.63;;;;;;;15.59;100.00;101645.09;5274033;28;20406;-67
2023/06/16 02:27:36;;;;;;;11.32;6.90;;;;;;;15.46;100.00;101648.00;5265094;28;20028;-67
2023/06/16 02:30:08;;;;;;;10.00;7.05;;;;;;;15.41;100.00;101645.69;5271137;28;20364;-66
2023/06/16 02:32:39;;;;;;;13.68;7.38;;;;;;;15.43;100.00;101646.41;5270033;28;20024;-67
2023/06/16 02:35:10;;;;;;;9.88;6.47;;;;;;;15.35;100.00;101651.59;5273073;28;20024;-67
2023/06/16 02:37:42;;;;;;;9.48;6.93;;;;;;;15.45;100.00;101646.28;5267219;28;20553;-66
2023/06/16 02:40:13;;;;;;;8.95;6.72;;;;;;;15.25;100.00;101650.66;5267963;28;20119;-67
2023/06/16 02:42:45;;;;;;;9.45;6.72;;;;;;;15.22;100.00;101651.75;5275048;28;20318;-66
2023/06/16 02:45:16;;;;;;;11.48;7.07;;;;;;;15.33;100.00;101648.16;5270859;28;20036;-66
2023/06/16 02:47:48;;;;;;;9.65;7.25;;;;;;;15.18;100.00;101641.38;5273865;28;20029;-66
2023/06/16 02:50:21;;;;;;;10.68;6.78;;;;;;;15.26;100.00;101649.66;5276161;28;20035;-66
2023/06/16 02:52:54;;;;;;;9.00;6.40;;;;;;;15.28;100.00;101645.00;5269959;28;20026;-66
2023/06/16 02:55:25;;;;;;;9.55;6.82;;;;;;;15.25;100.00;101648.81;5274574;28;20032;-66
2023/06/16 02:57:57;;;;;;;9.10;6.35;;;;;;;15.09;100.00;101640.31;5274839;28;20101;-67
2023/06/16 03:00:28;;;;;;;10.02;6.90;;;;;;;15.10;100.00;101640.19;5266863;28;20391;-66
2023/06/16 03:03:00;;;;;;;11.60;6.55;;;;;;;15.18;100.00;101642.22;5268205;28;20376;-66
2023/06/16 03:05:33;;;;;;;9.95;6.78;;;;;;;15.12;100.00;101648.13;5274688;28;20020;-66
2023/06/16 03:08:04;;;;;;;10.60;6.93;;;;;;;15.00;100.00;101647.31;5269529;28;20522;-66
2023/06/16 03:10:36;;;;;;;12.07;6.53;;;;;;;14.99;100.00;101644.75;5272854;28;20103;-66
2023/06/16 03:13:07;;;;;;;8.93;6.43;;;;;;;14.95;100.00;101651.34;5267125;28;20402;-66
2023/06/16 03:15:39;;;;;;;9.52;6.68;;;;;;;14.92;100.00;101644.41;5268561;28;20032;-67
2023/06/16 03:18:11;;;;;;;14.43;7.07;;;;;;;14.86;100.00;101648.47;5268199;28;20020;-67
2023/06/16 03:20:45;;;;;;;10.30;7.22;;;;;;;14.79;100.00;101652.63;5269955;28;20032;-66
2023/06/16 03:23:17;;;;;;;12.10;7.30;;;;;;;14.81;100.00;101647.13;5265980;28;20029;-66
2023/06/16 03:25:48;;;;;;;14.02;8.23;;;;;;;14.95;100.00;101645.97;5271202;28;20028;-66
2023/06/16 03:28:19;;;;;;;9.43;6.63;;;;;;;14.77;100.00;101656.41;5267934;28;20024;-66
2023/06/16 03:30:54;;;;;;;11.13;7.70;;;;;;;14.70;100.00;101656.88;5272316;28;20474;-66
2023/06/16 03:33:26;;;;;;;14.13;7.90;;;;;;;14.68;100.00;101656.16;5271415;28;20033;-67
2023/06/16 03:35:58;;;;;;;11.35;7.32;;;;;;;14.77;100.00;101659.09;5263000;28;21739;-66
2023/06/16 03:38:29;;;;;;;10.00;7.78;;;;;;;14.70;100.00;101659.56;5267551;28;20020;-66
2023/06/16 03:41:01;;;;;;;14.20;7.80;;;;;;;14.88;100.00;101662.63;5271512;28;20440;-67
2023/06/16 03:43:33;;;;;;;10.75;7.60;;;;;;;14.82;100.00;101659.56;5276567;28;20024;-66
2023/06/16 03:46:04;;;;;;;10.93;7.40;;;;;;;14.74;100.00;101662.03;5266431;28;20086;-66
2023/06/16 03:48:36;;;;;;;12.00;8.30;;;;;;;14.67;100.00;101659.00;5267929;28;20402;-67
2023/06/16 03:51:07;;;;;;;11.73;8.63;;;;;;;14.62;100.00;101661.19;5266692;28;20051;-66
2023/06/16 03:53:38;;;;;;;10.93;7.88;;;;;;;14.65;100.00;101664.50;5272419;28;20028;-67
2023/06/16 03:56:10;;;;;;;11.15;8.23;;;;;;;14.57;100.00;101664.22;5268737;28;20398;-66
2023/06/16 03:58:41;;;;;;;11.43;7.38;;;;;;;14.57;100.00;101658.84;5265487;28;20031;-66
2023/06/16 04:01:14;;;;;;;12.45;8.35;;;;;;;14.50;100.00;101657.63;5267840;28;20510;-67
2023/06/16 04:03:46;;;;;;;9.52;7.65;;;;;;;14.53;100.00;101668.09;5263247;28;20120;-66
2023/06/16 04:06:17;;;;;;;12.80;7.90;;;;;;;14.54;100.00;101667.16;5274188;28;20146;-66
2023/06/16 04:08:48;;;;;;;11.55;8.18;;;;;;;14.62;100.00;101667.41;5268159;28;20131;-66
2023/06/16 04:11:21;;;;;;;11.38;8.65;;;;;;;14.57;100.00;101666.91;5274332;28;20613;-66
2023/06/16 04:13:53;;;;;;;18.00;10.65;;;;;;;14.56;100.00;101673.25;5268604;28;20021;-67
2023/06/16 04:16:24;;;;;;;12.70;8.60;;;;;;;14.56;100.00;101667.88;5262528;28;20036;-66
2023/06/16 04:18:56;;;;;;;10.13;7.75;;;;;;;14.55;100.00;101674.22;5266708;28;20098;-66
2023/06/16 04:21:27;;;;;;;10.75;8.40;;;;;;;14.54;100.00;101674.34;5267530;28;20029;-66
2023/06/16 04:23:58;;;;;;;11.73;8.48;;;;;;;14.57;100.00;101677.66;5266478;28;20021;-67
2023/06/16 04:26:32;;;;;;;15.07;8.68;;;;;;;14.63;100.00;101674.50;5271952;28;20440;-66
2023/06/16 04:29:04;;;;;;;13.00;9.27;;;;;;;14.62;100.00;101678.16;5267560;28;20035;-67
2023/06/16 04:31:37;;;;;;;13.38;8.80;;;;;;;14.61;100.00;101680.97;5269122;28;20035;-66
2023/06/16 04:34:12;;;;;;;10.55;8.55;;;;;;;14.65;100.00;101672.53;5267485;28;20020;-67
2023/06/16 04:36:44;;;;;;;15.32;8.48;;;;;;;14.82;100.00;101676.56;5268705;28;20025;-67
2023/06/16 04:39:16;;;;;;;11.43;8.15;;;;;;;14.78;100.00;101675.06;5274700;28;20078;-66
2023/06/16 04:41:48;;;;;;;13.20;8.15;;;;;;;14.79;100.00;101676.78;5257598;28;20034;-66
2023/06/16 04:44:19;;;;;;;14.35;8.90;;;;;;;14.86;100.00;101679.81;5269730;28;20024;-66
2023/06/16 04:46:52;;;;;;;12.23;9.50;;;;;;;14.88;100.00;101686.81;5276538;28;20028;-66
2023/06/16 04:49:23;;;;;;;15.25;9.25;;;;;;;14.86;100.00;101688.75;5268717;28;20378;-67
2023/06/16 04:51:55;;;;;;;12.75;8.95;;;;;;;14.97;100.00;101685.19;5270247;28;20029;-67
2023/06/16 04:54:26;;;;;;;11.35;8.35;;;;;;;15.01;100.00;101675.88;5266195;28;20112;-67
2023/06/16 04:56:58;;;;;;;12.95;9.55;;;;;;;15.06;100.00;101684.44;5264441;28;20096;-66
2023/06/16 04:59:31;;;;;;;14.55;10.32;;;;;;;15.05;100.00;101690.81;5266553;28;20399;-67
2023/06/16 05:02:03;;;;;;;18.17;10.50;;;;;;;15.12;100.00;101690.28;5278769;28;20032;-66
2023/06/16 05:04:34;;;;;;;12.60;9.70;;;;;;;15.07;100.00;101686.16;5275448;28;20154;-67
2023/06/16 05:07:06;;;;;;;13.18;9.75;;;;;;;15.06;100.00;101692.50;5271897;28;20082;-67
2023/06/16 05:09:38;;;;;;;12.27;9.30;;;;;;;15.08;100.00;101689.69;5278050;28;20085;-66
2023/06/16 05:12:10;;;;;;;11.90;9.68;;;;;;;15.14;100.00;101685.63;5270343;28;20025;-66
2023/06/16 05:14:41;;;;;;;11.82;9.52;;;;;;;15.22;100.00;101694.75;5266763;28;20028;-66
2023/06/16 05:17:12;;;;;;;11.00;8.85;;;;;;;15.25;100.00;101691.00;5269766;28;20028;-66
2023/06/16 05:19:44;;;;;;;11.15;9.00;;;;;;;15.28;100.00;101696.09;5274747;28;20127;-68
2023/06/16 05:22:18;;;;;;;13.18;9.57;;;;;;;15.29;100.00;101695.13;5272933;28;20078;-67
2023/06/16 05:24:57;;;;;;;11.48;8.57;;;;;;;15.34;100.00;101698.28;5268822;28;20055;-67
2023/06/16 05:27:28;;;;;;;12.35;9.75;;;;;;;15.50;100.00;101700.56;5271243;28;20020;-66
2023/06/16 05:30:00;;;;;;;10.88;8.55;;;;;;;15.43;100.00;101694.81;5267189;28;20148;-66
2023/06/16 05:32:31;;;;;;;11.77;9.30;;;;;;;15.66;100.00;101692.88;5271101;28;20265;-67
2023/06/16 05:35:03;;;;;;;11.88;8.63;;;;;;;15.59;100.00;101704.28;5275230;28;20028;-67
2023/06/16 05:37:34;;;;;;;12.35;8.50;;;;;;;15.61;100.00;101700.50;5272373;28;20028;-66
2023/06/16 05:40:06;;;;;;;12.98;8.50;;;;;;;15.65;100.00;101693.88;5272408;28;20405;-66
2023/06/16 05:42:38;;;;;;;10.55;8.20;;;;;;;15.66;100.00;101702.78;5273347;28;20479;-66
2023/06/16 05:45:10;;;;;;;9.70;8.27;;;;;;;15.66;100.00;101695.56;5273549;28;20024;-66
2023/06/16 05:47:41;;;;;;;15.13;9.30;;;;;;;15.74;100.00;101697.63;5275063;28;20030;-67
2023/06/16 05:50:12;;;;;;;12.75;9.50;;;;;;;15.79;100.00;101699.97;5264969;28;20047;-67
2023/06/16 05:52:44;;;;;;;12.52;9.13;;;;;;;15.84;100.00;101703.97;5273014;28;20362;-66
2023/06/16 05:55:15;;;;;;;11.52;9.00;;;;;;;15.90;100.00;101696.31;5275170;28;20124;-67
2023/06/16 05:57:46;;;;;;;15.95;9.68;;;;;;;15.89;100.00;101695.47;5265400;28;20021;-66
2023/06/16 06:00:18;;;;;;;15.02;10.25;;;;;;;15.95;100.00;101705.72;5262518;28;20033;-67
2023/06/16 06:02:49;;;;;;;13.80;9.93;;;;;;;16.04;100.00;101709.47;5262069;28;20058;-66
2023/06/16 06:05:21;;;;;;;13.15;10.02;;;;;;;16.13;100.00;101702.44;5271151;28;20037;-66
2023/06/16 06:07:52;;;;;;;12.75;9.35;;;;;;;16.25;100.00;101706.75;5266724;28;20067;-66
2023/06/16 06:10:23;;;;;;;13.82;10.10;;;;;;;16.34;100.00;101719.44;5272351;28;20037;-66
2023/06/16 06:12:55;;;;;;;13.30;10.48;;;;;;;16.31;100.00;101714.31;5269796;28;20032;-67
2023/06/16 06:15:26;;;;;;;15.35;10.63;;;;;;;16.39;100.00;101708.25;5269452;28;20020;-67
2023/06/16 06:17:58;;;;;;;12.07;9.77;;;;;;;16.48;100.00;101710.13;5264944;28;20025;-67
2023/06/16 06:20:29;;;;;;;13.85;10.50;;;;;;;16.47;100.00;101711.13;5268636;28;20024;-66
2023/06/16 06:23:00;;;;;;;16.38;10.77;;;;;;;16.56;100.00;101714.84;5270064;28;20079;-66
2023/06/16 06:25:32;;;;;;;13.70;9.60;;;;;;;16.62;100.00;101720.53;5270877;28;20028;-67
2023/06/16 06:28:03;;;;;;;14.00;10.30;;;;;;;16.65;100.00;101716.75;5265331;28;20591;-67
2023/06/16 06:30:36;;;;;;;12.32;9.57;;;;;;;16.73;100.00;101718.75;5261364;28;20021;-66
2023/06/16 06:33:07;;;;;;;13.35;10.05;;;;;;;16.95;100.00;101725.78;5262977;28;20036;-67
2023/06/16 06:35:39;;;;;;;12.40;9.43;;;;;;;16.96;100.00;101727.50;5269156;28;20040;-67
2023/06/16 06:38:10;;;;;;;15.60;9.93;;;;;;;17.08;100.00;101730.94;5273014;28;20082;-67
2023/06/16 06:40:42;;;;;;;14.68;9.38;;;;;;;17.23;100.00;101734.94;5271147;28;21460;-66
2023/06/16 06:43:13;;;;;;;10.80;9.05;;;;;;;17.22;100.00;101728.72;5273140;28;20083;-67
2023/06/16 06:45:45;;;;;;;12.93;10.10;;;;;;;17.37;100.00;101729.16;5271589;28;20415;-67
2023/06/16 06:48:17;;;;;;;14.15;10.63;;;;;;;17.50;100.00;101733.44;5266072;28;20440;-67
2023/06/16 06:50:49;;;;;;;13.95;10.10;;;;;;;17.53;100.00;101727.75;5262289;28;20024;-67
2023/06/16 06:53:20;;;;;;;12.35;9.63;;;;;;;17.81;100.00;101732.31;5269362;28;20038;-67
2023/06/16 06:55:52;;;;;;;13.32;9.20;;;;;;;17.79;100.00;101728.03;5267183;28;20033;-67
2023/06/16 06:58:23;;;;;;;12.18;9.18;;;;;;;18.07;100.00;101729.03;5274057;28;20051;-66
2023/06/16 07:00:55;;;;;;;13.02;7.80;;;;;;;18.02;100.00;101734.00;5267851;28;20074;-66
2023/06/16 07:03:26;;;;;;;10.98;7.80;;;;;;;18.29;100.00;101738.63;5275524;28;20498;-66
2023/06/16 07:05:58;;;;;;;13.77;8.43;;;;;;;18.35;100.00;101742.59;5272720;28;20445;-66
2023/06/16 07:08:29;;;;;;;12.77;7.43;;;;;;;18.60;100.00;101727.56;5268444;28;20048;-67
2023/06/16 07:11:01;;;;;;;9.73;7.97;;;;;;;18.71;100.00;101742.75;5270664;28;20025;-68
2023/06/16 07:13:33;;;;;;;10.90;7.38;;;;;;;18.82;100.00;101737.19;5270270;28;20058;-67
2023/06/16 07:16:04;;;;;;;11.07;7.05;;;;;;;18.96;100.00;101747.50;5263151;28;20033;-66
2023/06/16 07:18:36;;;;;;;13.30;7.82;;;;;;;19.07;100.00;101751.03;5269402;28;20043;-66
2023/06/16 07:21:08;;;;;;;10.15;6.50;;;;;;;19.08;100.00;101745.47;5278535;28;20032;-66
2023/06/16 07:23:39;;;;;;;8.93;7.15;;;;;;;19.26;100.00;101744.66;5268240;28;20024;-66
2023/06/16 07:26:11;;;;;;;9.85;7.20;;;;;;;19.35;100.00;101741.88;5264838;28;20021;-67
2023/06/16 07:28:42;;;;;;;9.68;6.20;;;;;;;19.38;100.00;101741.56;5270368;28;20032;-67
2023/06/16 07:31:14;;;;;;;8.35;5.97;;;;;;;19.58;100.00;101742.28;5264847;28;20039;-67
2023/06/16 07:33:45;;;;;;;9.73;6.05;;;;;;;19.68;100.00;101744.91;5274515;28;20050;-66
2023/06/16 07:36:17;;;;;;;10.25;5.88;;;;;;;19.64;100.00;101745.38;5274230;28;20109;-67
2023/06/16 07:38:48;;;;;;;9.60;5.82;;;;;;;19.78;100.00;101739.44;5271895;28;20451;-66
2023/06/16 07:41:20;;;;;;;12.82;6.07;;;;;;;19.93;100.00;101746.00;5272013;28;20508;-67
2023/06/16 07:43:52;;;;;;;6.95;5.13;;;;;;;20.26;100.00;101746.22;5272590;28;20628;-67
2023/06/16 07:46:24;;;;;;;7.90;5.43;;;;;;;20.37;100.00;101743.25;5272684;28;20025;-67
2023/06/16 07:48:55;;;;;;;9.45;5.78;;;;;;;20.46;100.00;101741.47;5275535;28;20517;-66
2023/06/16 07:51:27;;;;;;;9.60;5.75;;;;;;;20.66;100.00;101747.53;5273672;28;20027;-67
2023/06/16 07:53:58;;;;;;;10.40;6.25;;;;;;;20.55;100.00;101743.19;5278177;28;20111;-67
2023/06/16 07:56:29;;;;;;;7.85;5.15;;;;;;;20.55;100.00;101751.31;5270434;28;20506;-66
2023/06/16 07:59:01;;;;;;;9.48;5.88;;;;;;;20.75;100.00;101740.28;5267053;28;20032;-66
2023/06/16 08:01:32;;;;;;;7.60;5.45;;;;;;;20.76;100.00;101742.81;5272794;28;20042;-66
2023/06/16 08:04:03;;;;;;;9.50;5.63;;;;;;;20.81;100.00;101744.22;5271773;28;20498;-66
2023/06/16 08:06:35;;;;;;;11.23;6.10;;;;;;;20.99;100.00;101741.41;5274607;28;20069;-66
2023/06/16 08:09:07;;;;;;;12.77;5.93;;;;;;;20.99;100.00;101738.69;5268442;28;20151;-66
2023/06/16 08:11:39;;;;;;;10.30;6.07;;;;;;;21.08;100.00;101729.56;5268701;28;20099;-66
2023/06/16 08:14:11;;;;;;;7.88;5.40;;;;;;;21.08;100.00;101740.41;5266259;28;20033;-67
2023/06/16 08:16:42;;;;;;;6.93;5.15;;;;;;;21.18;100.00;101737.56;5264204;28;20781;-66
2023/06/16 08:19:14;;;;;;;8.52;4.95;;;;;;;21.47;95.32;101737.13;5266471;28;20020;-67
2023/06/16 08:21:45;;;;;;;8.02;4.20;;;;;;;21.60;93.04;101736.66;5267190;28;20108;-67
2023/06/16 08:24:16;;;;;;;7.50;4.93;;;;;;;21.55;91.05;101734.41;5268484;28;20063;-66
2023/06/16 08:26:48;;;;;;;7.13;4.43;;;;;;;21.65;95.72;101732.41;5282525;28;20438;-66
2023/06/16 08:29:20;;;;;;;9.27;4.63;;;;;;;21.96;89.48;101741.72;5265633;28;20023;-66
2023/06/16 08:31:52;;;;;;;7.35;4.40;;;;;;;21.76;89.59;101727.66;5260539;28;20853;-66
2023/06/16 08:34:24;;;;;;;6.80;4.47;;;;;;;21.78;93.90;101742.75;5276084;28;20031;-67
2023/06/16 08:36:55;;;;;;;7.05;4.15;;;;;;;22.04;84.10;101729.00;5285311;28;20036;-66
2023/06/16 08:39:27;;;;;;;8.25;4.43;;;;;;;22.18;89.71;101735.59;5276936;28;20115;-67
2023/06/16 08:42:00;;;;;;;5.35;3.58;;;;;;;22.20;86.44;101727.28;5277709;28;20035;-67
2023/06/16 08:44:32;;;;;;;5.70;3.50;;;;;;;22.51;85.57;101727.41;5268151;28;20032;-66
2023/06/16 08:47:05;;;;;;;6.45;4.53;;;;;;;22.58;81.31;101722.97;5279446;28;20035;-67
2023/06/16 08:49:39;;;;;;;6.90;4.18;;;;;;;22.53;82.58;101725.34;5265871;28;20033;-67
2023/06/16 08:52:16;;;;;;;9.32;4.20;;;;;;;22.88;80.75;101734.09;5276861;28;20048;-67
2023/06/16 08:54:56;;;;;;;6.13;3.88;;;;;;;22.71;80.37;101730.59;5272597;28;20509;-67
2023/06/16 08:57:30;;;;;;;5.00;3.78;;;;;;;22.83;85.65;101728.31;5272316;28;20033;-67
2023/06/16 09:00:02;;;;;;;5.38;3.42;;;;;;;22.90;81.65;101724.72;5268526;28;20104;-67
2023/06/16 09:02:33;;;;;;;5.65;3.20;;;;;;;22.94;81.44;101724.38;5270997;28;20031;-67
2023/06/16 09:05:05;;;;;;;9.65;3.88;;;;;;;22.80;81.44;101723.22;5271840;28;20040;-67
2023/06/16 09:07:39;;;;;;;6.32;4.65;;;;;;;23.06;80.81;101728.41;5269611;28;20039;-67
2023/06/16 09:10:11;;;;;;;8.93;4.85;;;;;;;23.09;81.60;101719.91;5273971;28;20091;-67
2023/06/16 09:12:44;;;;;;;6.85;3.92;;;;;;;23.43;77.60;101729.53;5279133;28;20054;-67
2023/06/16 09:15:15;;;;;;;7.17;4.10;;;;;;;23.43;78.04;101730.41;5275619;28;20028;-67
2023/06/16 09:17:48;;;;;;;8.50;4.15;;;;;;;23.46;76.72;101726.47;5269939;28;20017;-67
2023/06/16 09:20:22;;;;;;;7.53;4.15;;;;;;;23.46;73.88;101729.19;5273974;28;20024;-67
2023/06/16 09:22:59;;;;;;;5.30;3.40;;;;;;;23.50;74.93;101725.06;5270834;28;20037;-67
2023/06/16 09:25:32;;;;;;;11.57;4.15;;;;;;;23.60;69.71;101731.13;5275943;28;20978;-67
2023/06/16 09:28:09;;;;;;;6.25;4.22;;;;;;;23.62;72.11;101736.38;5275435;28;20122;-67
2023/06/16 09:30:40;;;;;;;6.53;4.22;;;;;;;23.59;72.21;101732.16;5269671;28;20397;-68
2023/06/16 09:33:12;;;;;;;6.72;4.00;;;;;;;23.82;70.92;101731.34;5268926;28;20021;-67
2023/06/16 09:35:43;;;;;;;4.90;3.53;;;;;;;23.90;68.75;101731.25;5268940;28;20034;-67
2023/06/16 09:38:15;;;;;;;6.78;3.40;;;;;;;23.76;68.23;101729.28;5277744;28;20028;-67
2023/06/16 09:40:46;;;;;;;5.40;3.55;;;;;;;23.68;67.54;101728.34;5270274;28;20032;-67
2023/06/16 09:43:18;;;;;;;6.40;3.58;;;;;;;23.71;69.91;101724.41;5261583;28;20112;-67
2023/06/16 09:45:56;;;;;;;5.53;3.50;;;;;;;23.79;74.25;101724.34;5273537;28;20036;-67
2023/06/16 09:48:34;;;;;;;8.23;3.78;;;;;;;23.82;69.46;101717.72;5269662;28;20438;-67
2023/06/16 09:51:08;;;;;;;8.05;3.63;;;;;;;23.98;69.96;101717.53;5268084;28;20020;-68
2023/06/16 09:53:41;;;;;;;6.60;3.35;;;;;;;24.03;71.15;101717.00;5269907;28;20485;-68
2023/06/16 09:56:19;;;;;;;6.90;3.75;;;;;;;24.31;71.11;101710.91;5268255;28;20029;-68
2023/06/16 09:58:50;;;;;;;6.38;4.15;;;;;;;24.17;66.70;101708.00;5269138;28;20028;-68
2023/06/16 10:01:24;;;;;;;7.80;3.47;;;;;;;24.39;72.08;101706.22;5277576;28;20067;-68
2023/06/16 10:03:55;;;;;;;6.60;3.33;;;;;;;24.25;67.65;101704.31;5279586;28;20035;-67
2023/06/16 10:06:29;;;;;;;4.70;3.50;;;;;;;24.39;63.83;101708.97;5274987;28;20390;-68
2023/06/16 10:09:01;;;;;;;4.35;2.78;;;;;;;24.35;60.13;101704.88;5272473;28;20072;-67
2023/06/16 10:11:34;;;;;;;6.38;3.47;;;;;;;24.35;66.76;101701.31;5281832;28;20043;-67
2023/06/16 10:14:08;;;;;;;4.95;3.22;;;;;;;24.41;69.39;101697.84;5276486;28;20024;-67
2023/06/16 10:16:40;;;;;;;5.90;3.65;;;;;;;24.53;64.36;101701.00;5272241;28;20120;-67
2023/06/16 10:19:13;;;;;;;7.00;3.80;;;;;;;24.70;70.90;101707.06;5269356;28;20104;-68
2023/06/16 10:21:44;;;;;;;6.00;3.25;;;;;;;24.67;57.89;101702.00;5273702;28;20032;-67
2023/06/16 10:24:17;;;;;;;5.65;3.33;;;;;;;24.85;65.59;101705.16;5276921;28;20028;-68
2023/06/16 10:26:49;;;;;;;6.57;3.55;;;;;;;24.78;68.90;101696.91;5270828;28;20020;-68
2023/06/16 10:29:25;;;;;;;5.83;3.63;;;;;;;24.87;68.47;101697.63;5270595;28;20414;-68
2023/06/16 10:32:07;;;;;;;5.55;3.40;;;;;;;24.84;67.11;101689.84;5267606;28;20398;-68
2023/06/16 10:34:51;;;;;;;5.03;3.47;;;;;;;24.88;63.54;101685.69;5265337;28;20020;-68
2023/06/16 10:37:25;;;;;;;20.23;5.05;;;;;;;25.02;66.48;101687.53;5266389;28;20032;-68
2023/06/16 10:40:08;;;;;;;7.82;3.70;;;;;;;25.01;65.74;101693.19;5270792;28;20027;-68
2023/06/16 10:42:40;;;;;;;5.40;3.70;;;;;;;25.04;63.93;101681.88;5270803;28;21486;-69
2023/06/16 10:45:21;;;;;;;9.48;4.60;;;;;;;25.12;60.32;101680.91;5271969;28;20047;-68
2023/06/16 10:47:57;;;;;;;8.32;3.60;;;;;;;25.00;60.61;101681.41;5275101;28;20040;-68
2023/06/16 10:50:30;;;;;;;7.45;3.42;;;;;;;25.24;53.22;101680.25;5268383;28;20040;-68
2023/06/16 10:53:12;;;;;;;6.65;3.55;;;;;;;25.26;59.29;101668.28;5265334;28;20039;-67
2023/06/16 10:55:45;;;;;;;4.57;3.17;;;;;;;25.32;55.90;101678.44;5264946;28;20025;-68
2023/06/16 10:58:20;;;;;;;5.32;3.00;;;;;;;25.37;54.66;101676.81;5264639;28;20059;-68
2023/06/16 11:00:58;;;;;;;5.25;3.70;;;;;;;25.38;62.23;101689.41;5262827;28;20040;-68
2023/06/16 11:03:44;;;;;;;5.97;3.55;;;;;;;25.33;58.00;101678.25;5264661;28;20040;-68
2023/06/16 11:06:17;;;;;;;5.07;3.83;;;;;;;25.39;52.99;101671.13;5266818;28;20063;-68
2023/06/16 11:08:56;;;;;;;4.43;3.30;;;;;;;25.27;56.14;101675.44;5265212;28;20047;-68
2023/06/16 11:11:35;;;;;;;4.38;3.22;;;;;;;25.25;57.12;101670.16;5275920;28;20036;-68
2023/06/16 11:14:06;;;;;;;5.57;3.28;;;;;;;25.28;59.62;101666.22;5262582;28;20040;-68
2023/06/16 11:16:38;;;;;;;5.00;3.42;;;;;;;25.30;54.94;101664.13;5267039;28;20056;-68
2023/06/16 11:19:10;;;;;;;8.43;3.90;;;;;;;25.36;65.96;101655.97;5259703;28;20025;-68
2023/06/16 11:21:42;;;;;;;7.20;3.85;;;;;;;25.48;57.15;101658.19;5263903;28;20021;-67
2023/06/16 11:24:14;;;;;;;6.65;3.40;;;;;;;25.52;62.41;101663.06;5259380;28;20036;-67
2023/06/16 11:26:46;;;;;;;5.55;3.67;;;;;;;25.62;56.77;101655.38;5265605;28;20055;-68
2023/06/16 11:29:17;;;;;;;7.38;3.47;;;;;;;25.74;54.09;101666.63;5277822;28;20471;-68
2023/06/16 11:31:52;;;;;;;5.57;3.45;;;;;;;25.82;57.88;101668.38;5262983;28;20569;-68
2023/06/16 11:34:24;;;;;;;6.50;3.22;;;;;;;25.92;53.23;101679.81;5270318;28;20078;-68
2023/06/16 11:36:56;;;;;;;7.28;3.55;;;;;;;25.96;56.93;101661.97;5269547;28;20034;-68
2023/06/16 11:39:30;;;;;;;5.28;3.38;;;;;;;25.69;54.87;101663.63;5262941;28;20028;-67
2023/06/16 11:42:04;;;;;;;6.00;3.38;;;;;;;25.84;56.41;101666.28;5263640;28;20048;-68